Latest Weather Observations for Barimunya

IDW60801

Issued at 5:33 pm WST Sunday 20 August 2017 (issued every 30 minutes, with the page automatically refreshed every 10 minutes)

About weather observations | Map of weather stations | Latest weather observations for WA | Other Formats
Station Details ID: 505053 Name: BARIMUNYA Lat: -22.67 Lon: 119.16 Height: 629.17 m
Data from the previous 72 hours. | See also: Recent months for locations in Western Australia
Date/Time
WST
Temp
°C
App
Temp
°C
Dew
Point
°C
Rel
Hum
%
Delta-T
°C
Wind Press
QNH
hPa
Press
MSL
hPa
Rain since
9am
mm
Dir  Spd
km/h
Gust
km/h
Spd
kts
Gust
kts
20/05:30pm 22.3 - 1.3 25 10.0 - - - - - 1018.0 1016.2 -
20/12:30pm 21.0 15.7 2.8 30 8.9 SSE 20 30 11 16 1019.5 1017.7 -
20/11:30am 19.9 14.1 2.3 31 8.4 SSE 22 32 12 17 1020.8 1019.0 -
20/11:00am 19.1 13.0 2.5 33 7.9 SSE 24 33 13 18 1021.1 1019.3 -
20/10:30am 18.7 12.6 2.5 34 7.7 SSE 24 30 13 16 1021.5 1019.7 -
20/10:00am 17.4 10.8 2.2 36 7.1 SSE 26 32 14 17 1021.8 1020.1 0.0
20/09:30am 16.6 9.6 2.2 38 6.7 SSE 28 37 15 20 1022.0 1020.3 0.0
20/09:00am 15.2 8.7 2.4 42 5.9 SSE 26 33 14 18 1022.1 1020.4 0.0
20/08:30am 14.5 6.8 2.4 44 5.6 SSE 32 39 17 21 1022.1 1020.4 0.0
20/08:00am 14.2 7.0 2.8 46 5.2 S 30 41 16 22 1021.8 1020.1 0.0
20/07:30am 14.0 7.2 2.9 47 5.1 SSE 28 39 15 21 1021.6 1019.9 0.0
20/07:00am 14.0 7.6 3.2 48 5.0 S 26 35 14 19 1021.0 1019.2 0.0
20/06:30am 14.1 8.6 3.8 50 4.9 S 22 32 12 17 1020.5 1018.8 0.0
20/06:00am 14.4 8.2 4.1 50 4.9 S 26 35 14 19 1020.2 1018.5 0.0
20/05:30am 14.8 9.0 4.2 49 5.1 S 24 30 13 16 1019.9 1018.1 0.0
20/05:00am 15.2 9.8 4.3 48 5.2 S 22 32 12 17 1019.5 1017.7 0.0
20/04:30am 15.5 11.1 4.8 49 5.2 S 17 24 9 13 1019.4 1017.6 0.0
20/04:00am 15.7 11.3 5.0 49 5.2 S 17 22 9 12 1019.2 1017.4 0.0
20/03:30am 15.9 11.2 5.2 49 5.3 S 19 26 10 14 1019.2 1017.4 0.0
20/03:00am 16.0 11.8 5.6 50 5.2 S 17 20 9 11 1019.1 1017.3 0.0
20/02:30am 15.9 11.8 6.1 52 4.9 S 17 28 9 15 1019.1 1017.3 0.0
20/02:00am 16.3 12.2 6.2 51 5.1 S 17 24 9 13 1018.8 1017.1 0.0
20/01:30am 16.6 12.5 6.1 50 5.3 SSW 17 26 9 14 1018.7 1016.9 0.0
20/01:00am 17.1 13.0 6.0 48 5.6 S 17 24 9 13 1018.6 1016.8 0.0
20/12:30am 18.0 13.2 5.6 44 6.2 S 20 28 11 15 1018.4 1016.6 0.0
20/12:00am 18.0 15.2 5.2 43 6.4 SSW 9 17 5 9 1018.5 1016.7 0.0
 
Date/Time
WST
Temp
°C
App
Temp
°C
Dew
Point
°C
Rel
Hum
%
Delta-T
°C
Wind Press
QNH
hPa
Press
MSL
hPa
Rain since
9am
mm
Dir  Spd
km/h
Gust
km/h
Spd
kts
Gust
kts
19/11:30pm 17.9 15.1 5.2 43 6.3 SW 9 11 5 6 1018.4 1016.6 0.0
19/11:00pm 18.0 15.6 5.2 43 6.4 SW 7 9 4 5 1018.4 1016.6 0.0
19/10:30pm 18.8 16.0 5.3 41 6.8 SW 9 11 5 6 1018.5 1016.7 0.0
19/10:00pm 19.3 16.6 5.7 41 6.9 SW 9 11 5 6 1018.4 1016.6 0.0
19/09:30pm 20.0 17.7 5.6 39 7.3 WSW 7 9 4 5 1018.1 1016.3 0.0
19/09:00pm 21.1 18.8 5.9 37 7.8 WSW 7 9 4 5 1018.0 1016.2 0.0
19/08:30pm 21.5 18.8 5.8 36 8.1 WSW 9 9 5 5 1018.0 1016.2 0.0
19/08:00pm 21.9 19.8 5.8 35 8.3 WSW 6 7 3 4 1017.7 1015.9 0.0
19/07:30pm 22.8 20.5 5.7 33 8.9 WSW 7 9 4 5 1017.5 1015.7 0.0
19/07:00pm 24.2 21.2 6.0 31 9.6 W 11 15 6 8 1016.9 1015.1 0.0
19/06:30pm 25.2 22.2 5.9 29 10.2 WSW 11 17 6 9 1016.6 1014.8 0.0
19/06:00pm 27.3 22.5 5.6 25 11.6 NW 20 30 11 16 1015.9 1014.0 0.0
19/05:30pm 28.1 22.5 5.6 24 12.0 NW 24 37 13 20 1015.5 1013.7 0.0
19/05:00pm 28.5 22.5 5.4 23 12.3 NNW 26 37 14 20 1015.3 1013.5 0.0
19/04:30pm 29.4 23.4 5.5 22 12.9 NW 26 37 14 20 1015.0 1013.2 0.0
19/04:00pm 29.5 22.8 5.6 22 12.9 NW 30 43 16 23 1015.0 1013.2 0.0
19/03:45pm 29.7 23.0 5.7 22 13.0 NNW 30 54 16 29 1014.7 1012.9 0.0
19/03:30pm 29.9 24.4 5.9 22 13.0 NW 24 37 13 20 1014.8 1013.0 0.0
19/03:06pm 29.7 23.6 6.4 23 12.7 NNW 28 48 15 26 1015.0 - 0.0
19/03:05pm 30.1 23.9 6.1 22 13.1 NNW 28 48 15 26 1014.9 1013.1 0.0
19/03:00pm 30.3 25.4 6.9 23 12.9 NNW 22 33 12 18 1014.9 1013.1 0.0
19/02:30pm 29.2 22.7 6.6 24 12.4 NW 30 46 16 25 1015.0 1013.2 0.0
19/02:20pm 29.6 22.8 6.9 24 12.5 NW 32 50 17 27 1015.1 1013.3 0.0
19/02:00pm 29.6 23.2 6.9 24 12.5 NNW 30 43 16 23 1015.3 1013.5 0.0
19/01:39pm 29.5 22.9 6.2 23 12.7 NW 30 48 16 26 1015.1 - 0.0
19/01:36pm 29.2 22.7 6.6 24 12.4 NW 30 48 16 26 1015.3 1013.5 0.0
19/01:30pm 28.9 23.1 6.3 24 12.3 NNW 26 44 14 24 1015.3 1013.5 0.0
19/01:08pm 28.6 22.4 6.1 24 12.2 NW 28 46 15 25 1015.7 1013.8 0.0
19/01:00pm 28.9 23.5 6.3 24 12.3 NW 24 35 13 19 1015.7 1013.8 0.0
19/12:30pm 29.2 23.1 6.6 24 12.4 NW 28 39 15 21 1016.0 1014.1 0.0
19/12:23pm 28.1 21.9 6.2 25 11.8 NNW 28 48 15 26 1016.2 - 0.0
19/12:00pm 27.6 22.7 6.9 27 11.3 NNW 22 37 12 20 1016.5 1014.7 0.0
19/11:30am 26.7 23.1 6.7 28 10.8 NNW 15 24 8 13 1017.0 1015.2 0.0
19/11:00am 25.5 22.6 8.1 33 9.6 NW 13 24 7 13 1017.6 1015.8 0.0
19/10:30am 24.1 21.2 8.1 36 8.7 WNW 13 20 7 11 1018.1 1016.3 0.0
19/10:00am 22.7 20.5 8.0 39 7.9 SW 9 11 5 6 1018.5 1016.7 0.0
19/09:30am 22.0 20.4 8.2 41 7.5 W 6 13 3 7 1018.7 1016.9 0.0
19/09:00am 21.2 19.2 8.5 44 6.9 WSW 9 13 5 7 1018.8 1017.1 0.0
19/08:30am 20.2 19.6 7.2 43 6.8 CALM 0 0 0 0 1019.1 1017.3 0.0
19/08:00am 18.7 16.8 6.9 46 6.1 W 6 9 3 5 1018.8 1017.1 0.0
19/07:30am 17.4 15.3 6.0 47 5.8 W 6 9 3 5 1018.7 1016.9 0.0
19/07:00am 15.6 13.4 5.2 50 5.1 W 6 9 3 5 1018.5 1016.7 0.0
19/06:30am 15.4 13.1 5.0 50 5.1 W 6 9 3 5 1018.2 1016.4 0.0
19/06:00am 15.2 13.3 5.1 51 4.9 W 4 7 2 4 1018.2 1016.4 0.0
19/05:30am 14.9 13.4 4.9 51 4.9 W 2 6 1 3 1017.9 1016.1 0.0
19/05:00am 15.1 12.6 4.8 50 5.0 W 7 9 4 5 1017.7 1015.9 0.0
19/04:30am 15.5 13.0 4.8 49 5.2 W 7 11 4 6 1017.5 1015.7 0.0
19/04:00am 15.8 14.2 4.5 47 5.5 W 2 6 1 3 1017.5 1015.7 0.0
19/03:30am 17.1 14.7 5.4 46 5.8 W 7 11 4 6 1017.5 1015.7 0.0
19/03:00am 16.3 13.4 4.7 46 5.7 WNW 9 11 5 6 1017.4 1015.5 0.0
19/02:30am 16.8 14.3 4.8 45 5.9 WNW 7 9 4 5 1017.6 1015.8 0.0
19/02:00am 17.2 14.9 4.9 44 6.1 WNW 6 7 3 4 1017.6 1015.8 0.0
19/01:30am 17.7 15.2 5.0 43 6.3 WNW 7 9 4 5 1017.6 1015.8 0.0
19/01:00am 17.8 15.5 4.7 42 6.5 WNW 6 7 3 4 1017.7 1015.9 0.0
19/12:30am 18.7 15.4 4.5 39 7.0 WNW 11 13 6 7 1017.9 1016.1 0.0
19/12:00am 18.4 15.0 3.8 38 7.1 WNW 11 11 6 6 1018.0 1016.2 0.0
 
Date/Time
WST
Temp
°C
App
Temp
°C
Dew
Point
°C
Rel
Hum
%
Delta-T
°C
Wind Press
QNH
hPa
Press
MSL
hPa
Rain since
9am
mm
Dir  Spd
km/h
Gust
km/h
Spd
kts
Gust
kts
18/11:30pm 18.7 16.0 3.7 37 7.3 N 7 9 4 5 1018.1 1016.3 0.0
18/11:00pm 19.6 17.2 4.1 36 7.6 N 6 7 3 4 1018.0 1016.2 0.0
18/10:30pm 19.6 17.1 3.7 35 7.8 N 6 7 3 4 1018.0 1016.2 0.0
18/10:00pm 19.6 18.2 3.7 35 7.8 CALM 0 0 0 0 1018.1 1016.3 0.0
18/09:30pm 19.6 17.8 3.3 34 7.9 N 2 7 1 4 1018.2 1016.4 0.0
18/09:00pm 20.3 17.8 3.5 33 8.2 N 6 7 3 4 1018.3 1016.5 0.0
18/08:30pm 20.9 18.1 3.2 31 8.7 N 7 9 4 5 1018.3 1016.5 0.0
18/08:00pm 21.6 19.0 3.3 30 9.0 N 6 7 3 4 1018.1 1016.3 0.0
18/07:30pm 22.4 19.7 3.5 29 9.4 N 7 7 4 4 1017.7 1015.9 0.0
18/07:00pm 23.3 20.5 3.3 27 10.0 N 7 11 4 6 1017.4 1015.5 0.0
18/06:30pm 24.6 21.4 3.3 25 10.7 N 9 13 5 7 1016.9 1015.1 0.0
18/06:00pm 25.6 21.7 3.6 24 11.2 NNW 13 19 7 10 1016.5 1014.7 0.0
18/05:30pm 26.7 21.6 3.2 22 12.0 N 19 26 10 14 1016.4 1014.6 0.0
18/05:00pm 27.2 22.2 3.7 22 12.1 N 19 24 10 13 1016.3 1014.5 0.0
18/04:30pm 27.6 22.4 3.3 21 12.5 NNE 20 35 11 19 1016.1 1014.3 0.0
18/04:00pm 28.2 23.0 3.8 21 12.7 NNW 20 30 11 16 1016.0 1014.1 0.0
18/03:30pm 28.2 23.0 3.8 21 12.7 N 20 30 11 16 1016.0 1014.1 0.0
18/03:00pm 28.2 21.5 3.8 21 12.7 NNE 28 43 15 23 1016.0 1014.1 0.0
18/02:30pm 28.2 22.3 3.8 21 12.7 N 24 39 13 21 1016.0 1014.1 0.0
18/02:00pm 28.0 22.1 3.7 21 12.6 N 24 41 13 22 1016.1 1014.3 0.0
18/01:30pm 27.9 22.8 4.2 22 12.4 N 20 37 11 20 1016.3 1014.5 0.0
18/01:00pm 27.8 22.9 4.2 22 12.3 NNE 19 35 10 19 1016.7 1014.9 0.0
18/12:30pm 26.5 20.8 3.1 22 11.9 NE 22 48 12 26 1017.1 1015.3 0.0
18/12:00pm 25.3 19.9 2.7 23 11.3 NE 20 30 11 16 1017.9 1016.1 0.0
18/11:30am 25.3 19.8 2.1 22 11.5 NE 20 28 11 15 1018.5 1016.7 0.0
18/11:00am 23.5 18.0 1.8 24 10.5 NE 20 28 11 15 1019.1 1017.3 0.0
18/10:30am 22.6 17.2 1.0 24 10.3 ENE 19 28 10 15 1019.3 1017.5 0.0
18/10:00am 22.0 17.0 1.1 25 9.9 NE 17 24 9 13 1019.7 1017.9 0.0
18/09:30am 21.2 16.1 1.0 26 9.5 ENE 17 24 9 13 1019.9 1018.1 0.0
18/09:00am 20.0 15.9 -0.1 26 9.1 E 11 19 6 10 1019.8 1018.0 0.0
18/08:30am 18.7 14.2 -0.2 28 8.5 ESE 13 17 7 9 1019.6 1017.8 0.0
18/08:00am 16.9 13.2 -0.3 31 7.6 ESE 9 13 5 7 1019.3 1017.5 0.0
18/07:30am 15.9 13.1 -0.3 33 7.1 ESE 4 9 2 5 1019.2 1017.4 0.0
18/07:00am 12.8 10.8 0.2 42 5.4 CALM 0 0 0 0 1018.7 1016.9 0.0
18/06:30am 12.5 10.6 0.3 43 5.3 CALM 0 0 0 0 1018.4 1016.6 0.0
18/06:00am 14.2 10.5 -0.3 37 6.3 ESE 9 15 5 8 1018.0 1016.2 0.0
18/05:30am 14.9 10.4 0.0 36 6.5 ESE 13 15 7 8 1017.7 1015.9 0.0
18/05:00am 15.3 11.7 0.3 36 6.6 SE 9 13 5 7 1017.4 1015.5 0.0
18/04:30am 15.7 12.1 0.7 36 6.7 ESE 9 13 5 7 1017.2 1015.4 0.0
18/04:00am 15.9 12.3 0.9 36 6.7 ESE 9 15 5 8 1017.2 1015.4 0.0
18/03:30am 16.2 12.4 1.5 37 6.7 SE 11 15 6 8 1017.1 1015.3 0.0
18/03:00am 16.8 12.6 1.7 36 7.0 SE 13 20 7 11 1017.0 1015.2 0.0
18/02:30am 17.7 12.8 1.7 34 7.4 E 17 26 9 14 1016.8 1015.0 0.0
18/02:00am 18.2 12.9 1.7 33 7.7 E 19 26 10 14 1016.9 1015.1 0.0
18/01:30am 18.3 12.9 2.2 34 7.6 E 20 28 11 15 1016.9 1015.1 0.0
18/01:00am 18.3 13.1 2.2 34 7.6 E 19 26 10 14 1017.0 1015.2 0.0
18/12:30am 18.3 13.5 2.6 35 7.5 E 17 22 9 12 1017.1 1015.3 0.0
18/12:00am 18.6 13.4 2.4 34 7.7 E 19 26 10 14 1017.2 1015.4 0.0
 
Date/Time
WST
Temp
°C
App
Temp
°C
Dew
Point
°C
Rel
Hum
%
Delta-T
°C
Wind Press
QNH
hPa
Press
MSL
hPa
Rain since
9am
mm
Dir  Spd
km/h
Gust
km/h
Spd
kts
Gust
kts
17/11:30pm 19.0 13.9 2.8 34 7.8 E 19 26 10 14 1017.2 1015.4 0.0
17/11:00pm 19.4 14.1 3.2 34 7.8 E 20 26 11 14 1017.5 1015.7 0.0
17/10:30pm 19.8 14.7 3.1 33 8.1 E 19 28 10 15 1017.6 1015.8 0.0
17/10:00pm 20.4 15.7 3.2 32 8.4 E 17 22 9 12 1017.6 1015.8 0.0
17/09:30pm 20.0 15.7 3.3 33 8.1 E 15 20 8 11 1017.5 1015.7 0.0
17/09:00pm 19.5 15.9 2.8 33 8.0 E 11 15 6 8 1017.5 1015.7 0.0
17/08:30pm 19.5 15.9 2.8 33 8.0 ENE 11 13 6 7 1017.5 1015.7 0.0
17/08:00pm 19.9 17.0 2.7 32 8.3 E 7 9 4 5 1017.2 1015.4 0.0
17/07:30pm 20.3 17.0 2.6 31 8.5 E 9 9 5 5 1017.0 1015.2 0.0
17/07:00pm 21.1 17.9 2.9 30 8.9 ENE 9 11 5 6 1016.7 1014.9 0.0
17/06:30pm 21.6 18.4 2.8 29 9.2 ENE 9 13 5 7 1016.4 1014.6 0.0
17/06:00pm 22.4 19.2 3.0 28 9.6 NE 9 11 5 6 1016.0 1014.1 0.0

Other Formats:

Comma delimited format used in spreadsheet applications
http://www.bom.gov.au/fwo/IDW60801/IDW60801.99313.axf

JavaScript Object Notation format (JSON) in row-major order
http://www.bom.gov.au/fwo/IDW60801/IDW60801.99313.json